sensor_id;sensor_type;location;lat;lon;timestamp;P1;durP1;ratioP1;P2;durP2;ratioP2
76850;SDS011;65824;43.726;20.692;2023-04-24T00:00:23;12.00;;;7.35;;
76850;SDS011;65824;43.726;20.692;2023-04-24T00:02:50;11.70;;;7.47;;
76850;SDS011;65824;43.726;20.692;2023-04-24T00:05:16;12.50;;;7.50;;
76850;SDS011;65824;43.726;20.692;2023-04-24T00:07:42;11.07;;;7.07;;
76850;SDS011;65824;43.726;20.692;2023-04-24T00:10:09;13.05;;;7.50;;
76850;SDS011;65824;43.726;20.692;2023-04-24T00:12:35;12.77;;;7.45;;
76850;SDS011;65824;43.726;20.692;2023-04-24T00:15:01;12.27;;;7.38;;
76850;SDS011;65824;43.726;20.692;2023-04-24T00:17:28;11.18;;;6.63;;
76850;SDS011;65824;43.726;20.692;2023-04-24T00:19:54;12.15;;;6.47;;
76850;SDS011;65824;43.726;20.692;2023-04-24T00:22:28;11.93;;;6.88;;
76850;SDS011;65824;43.726;20.692;2023-04-24T00:24:54;12.40;;;7.07;;
76850;SDS011;65824;43.726;20.692;2023-04-24T00:27:19;11.02;;;6.97;;
76850;SDS011;65824;43.726;20.692;2023-04-24T00:29:45;11.35;;;7.18;;
76850;SDS011;65824;43.726;20.692;2023-04-24T00:32:11;11.73;;;7.07;;
76850;SDS011;65824;43.726;20.692;2023-04-24T00:34:36;8.90;;;6.65;;
76850;SDS011;65824;43.726;20.692;2023-04-24T00:37:02;15.15;;;7.15;;
76850;SDS011;65824;43.726;20.692;2023-04-24T00:39:28;12.70;;;7.60;;
76850;SDS011;65824;43.726;20.692;2023-04-24T00:41:53;12.70;;;6.93;;
76850;SDS011;65824;43.726;20.692;2023-04-24T00:44:18;13.32;;;7.43;;
76850;SDS011;65824;43.726;20.692;2023-04-24T00:46:44;12.73;;;7.15;;
76850;SDS011;65824;43.726;20.692;2023-04-24T00:49:11;10.20;;;6.88;;
76850;SDS011;65824;43.726;20.692;2023-04-24T00:51:37;10.73;;;6.75;;
76850;SDS011;65824;43.726;20.692;2023-04-24T00:54:02;12.25;;;7.22;;
76850;SDS011;65824;43.726;20.692;2023-04-24T00:56:28;12.23;;;7.07;;
76850;SDS011;65824;43.726;20.692;2023-04-24T00:58:53;10.48;;;6.60;;
76850;SDS011;65824;43.726;20.692;2023-04-24T01:01:19;11.48;;;6.47;;
76850;SDS011;65824;43.726;20.692;2023-04-24T01:03:46;11.00;;;6.70;;
76850;SDS011;65824;43.726;20.692;2023-04-24T01:06:12;11.55;;;6.78;;
76850;SDS011;65824;43.726;20.692;2023-04-24T01:08:38;12.93;;;7.00;;
76850;SDS011;65824;43.726;20.692;2023-04-24T01:11:04;12.48;;;6.68;;
76850;SDS011;65824;43.726;20.692;2023-04-24T01:13:30;11.45;;;6.72;;
76850;SDS011;65824;43.726;20.692;2023-04-24T01:15:56;11.45;;;6.18;;
76850;SDS011;65824;43.726;20.692;2023-04-24T01:18:22;15.40;;;6.85;;
76850;SDS011;65824;43.726;20.692;2023-04-24T01:20:47;13.38;;;6.00;;
76850;SDS011;65824;43.726;20.692;2023-04-24T01:23:16;10.48;;;6.57;;
76850;SDS011;65824;43.726;20.692;2023-04-24T01:25:42;11.23;;;6.25;;
76850;SDS011;65824;43.726;20.692;2023-04-24T01:28:08;12.25;;;7.13;;
76850;SDS011;65824;43.726;20.692;2023-04-24T01:30:33;12.80;;;6.63;;
76850;SDS011;65824;43.726;20.692;2023-04-24T01:32:59;10.95;;;6.85;;
76850;SDS011;65824;43.726;20.692;2023-04-24T01:35:25;11.98;;;6.50;;
76850;SDS011;65824;43.726;20.692;2023-04-24T01:37:51;9.07;;;6.18;;
76850;SDS011;65824;43.726;20.692;2023-04-24T01:40:16;12.57;;;7.43;;
76850;SDS011;65824;43.726;20.692;2023-04-24T01:42:42;10.63;;;6.82;;
76850;SDS011;65824;43.726;20.692;2023-04-24T01:45:07;10.15;;;6.88;;
76850;SDS011;65824;43.726;20.692;2023-04-24T01:47:35;11.05;;;6.80;;
76850;SDS011;65824;43.726;20.692;2023-04-24T01:50:01;10.77;;;6.82;;
76850;SDS011;65824;43.726;20.692;2023-04-24T01:52:27;12.63;;;7.30;;
76850;SDS011;65824;43.726;20.692;2023-04-24T01:54:56;11.88;;;6.85;;
76850;SDS011;65824;43.726;20.692;2023-04-24T01:57:21;10.45;;;6.65;;
76850;SDS011;65824;43.726;20.692;2023-04-24T01:59:47;13.48;;;7.30;;
76850;SDS011;65824;43.726;20.692;2023-04-24T02:02:12;10.25;;;7.28;;
76850;SDS011;65824;43.726;20.692;2023-04-24T02:04:39;11.95;;;7.10;;
76850;SDS011;65824;43.726;20.692;2023-04-24T02:07:04;14.13;;;7.53;;
76850;SDS011;65824;43.726;20.692;2023-04-24T02:09:30;11.73;;;7.07;;
76850;SDS011;65824;43.726;20.692;2023-04-24T02:11:55;12.90;;;6.97;;
76850;SDS011;65824;43.726;20.692;2023-04-24T02:14:21;10.85;;;7.50;;
76850;SDS011;65824;43.726;20.692;2023-04-24T02:16:46;12.98;;;7.85;;
76850;SDS011;65824;43.726;20.692;2023-04-24T02:19:12;12.05;;;8.38;;
76850;SDS011;65824;43.726;20.692;2023-04-24T02:21:38;10.75;;;7.45;;
76850;SDS011;65824;43.726;20.692;2023-04-24T02:24:03;15.40;;;6.93;;
76850;SDS011;65824;43.726;20.692;2023-04-24T02:26:29;13.25;;;7.30;;
76850;SDS011;65824;43.726;20.692;2023-04-24T02:28:56;10.05;;;6.75;;
76850;SDS011;65824;43.726;20.692;2023-04-24T02:31:22;10.90;;;6.50;;
76850;SDS011;65824;43.726;20.692;2023-04-24T02:33:49;12.07;;;6.55;;
76850;SDS011;65824;43.726;20.692;2023-04-24T02:36:15;11.20;;;6.28;;
76850;SDS011;65824;43.726;20.692;2023-04-24T02:38:40;13.52;;;7.10;;
76850;SDS011;65824;43.726;20.692;2023-04-24T02:41:05;10.02;;;6.55;;
76850;SDS011;65824;43.726;20.692;2023-04-24T02:43:32;13.77;;;6.93;;
76850;SDS011;65824;43.726;20.692;2023-04-24T02:45:58;13.00;;;6.50;;
76850;SDS011;65824;43.726;20.692;2023-04-24T02:48:24;10.20;;;6.13;;
76850;SDS011;65824;43.726;20.692;2023-04-24T02:50:51;11.02;;;6.50;;
76850;SDS011;65824;43.726;20.692;2023-04-24T02:53:16;11.20;;;6.05;;
76850;SDS011;65824;43.726;20.692;2023-04-24T02:55:42;9.43;;;5.47;;
76850;SDS011;65824;43.726;20.692;2023-04-24T02:58:07;10.73;;;6.20;;
76850;SDS011;65824;43.726;20.692;2023-04-24T03:00:33;9.70;;;6.57;;
76850;SDS011;65824;43.726;20.692;2023-04-24T03:02:59;11.55;;;6.28;;
76850;SDS011;65824;43.726;20.692;2023-04-24T03:05:24;12.40;;;6.95;;
76850;SDS011;65824;43.726;20.692;2023-04-24T03:07:50;11.82;;;7.38;;
76850;SDS011;65824;43.726;20.692;2023-04-24T03:10:17;9.77;;;5.65;;
76850;SDS011;65824;43.726;20.692;2023-04-24T03:12:43;11.95;;;5.90;;
76850;SDS011;65824;43.726;20.692;2023-04-24T03:15:08;9.15;;;6.22;;
76850;SDS011;65824;43.726;20.692;2023-04-24T03:17:34;11.13;;;5.95;;
76850;SDS011;65824;43.726;20.692;2023-04-24T03:20:00;8.98;;;5.82;;
76850;SDS011;65824;43.726;20.692;2023-04-24T03:22:27;11.80;;;5.78;;
76850;SDS011;65824;43.726;20.692;2023-04-24T03:24:52;9.32;;;5.85;;
76850;SDS011;65824;43.726;20.692;2023-04-24T03:27:19;11.82;;;6.13;;
76850;SDS011;65824;43.726;20.692;2023-04-24T03:29:45;11.52;;;5.78;;
76850;SDS011;65824;43.726;20.692;2023-04-24T03:32:10;9.63;;;5.78;;
76850;SDS011;65824;43.726;20.692;2023-04-24T03:34:36;11.77;;;5.70;;
76850;SDS011;65824;43.726;20.692;2023-04-24T03:37:01;8.20;;;5.07;;
76850;SDS011;65824;43.726;20.692;2023-04-24T03:39:26;10.23;;;5.50;;
76850;SDS011;65824;43.726;20.692;2023-04-24T03:41:52;10.07;;;5.70;;
76850;SDS011;65824;43.726;20.692;2023-04-24T03:44:17;10.00;;;5.75;;
76850;SDS011;65824;43.726;20.692;2023-04-24T03:46:43;12.05;;;5.72;;
76850;SDS011;65824;43.726;20.692;2023-04-24T03:49:08;13.05;;;6.35;;
76850;SDS011;65824;43.726;20.692;2023-04-24T03:51:34;9.18;;;5.88;;
76850;SDS011;65824;43.726;20.692;2023-04-24T03:53:59;13.40;;;6.63;;
76850;SDS011;65824;43.726;20.692;2023-04-24T03:56:25;10.00;;;6.20;;
76850;SDS011;65824;43.726;20.692;2023-04-24T03:58:50;12.05;;;6.68;;
76850;SDS011;65824;43.726;20.692;2023-04-24T04:01:15;11.60;;;6.13;;
76850;SDS011;65824;43.726;20.692;2023-04-24T04:03:41;10.32;;;6.28;;
76850;SDS011;65824;43.726;20.692;2023-04-24T04:06:06;10.50;;;6.25;;
76850;SDS011;65824;43.726;20.692;2023-04-24T04:08:32;11.75;;;6.93;;
76850;SDS011;65824;43.726;20.692;2023-04-24T04:10:58;10.48;;;6.32;;
76850;SDS011;65824;43.726;20.692;2023-04-24T04:13:24;12.32;;;6.68;;
76850;SDS011;65824;43.726;20.692;2023-04-24T04:15:50;11.23;;;6.78;;
76850;SDS011;65824;43.726;20.692;2023-04-24T04:18:20;16.30;;;7.13;;
76850;SDS011;65824;43.726;20.692;2023-04-24T04:20:48;11.73;;;7.07;;
76850;SDS011;65824;43.726;20.692;2023-04-24T04:23:15;9.40;;;6.22;;
76850;SDS011;65824;43.726;20.692;2023-04-24T04:25:42;13.50;;;6.93;;
76850;SDS011;65824;43.726;20.692;2023-04-24T04:28:07;12.35;;;7.25;;
76850;SDS011;65824;43.726;20.692;2023-04-24T04:30:34;12.13;;;6.55;;
76850;SDS011;65824;43.726;20.692;2023-04-24T04:33:00;11.05;;;6.55;;
76850;SDS011;65824;43.726;20.692;2023-04-24T04:35:26;14.82;;;7.30;;
76850;SDS011;65824;43.726;20.692;2023-04-24T04:37:51;12.50;;;6.47;;
76850;SDS011;65824;43.726;20.692;2023-04-24T04:40:18;11.48;;;6.07;;
76850;SDS011;65824;43.726;20.692;2023-04-24T04:42:44;12.50;;;6.72;;
76850;SDS011;65824;43.726;20.692;2023-04-24T04:45:11;11.30;;;6.35;;
76850;SDS011;65824;43.726;20.692;2023-04-24T04:47:36;15.80;;;7.18;;
76850;SDS011;65824;43.726;20.692;2023-04-24T04:50:02;11.57;;;6.90;;
76850;SDS011;65824;43.726;20.692;2023-04-24T04:52:29;17.30;;;8.57;;
76850;SDS011;65824;43.726;20.692;2023-04-24T04:54:54;16.98;;;8.48;;
76850;SDS011;65824;43.726;20.692;2023-04-24T04:57:20;21.92;;;9.27;;
76850;SDS011;65824;43.726;20.692;2023-04-24T04:59:46;18.88;;;9.65;;
76850;SDS011;65824;43.726;20.692;2023-04-24T05:02:12;20.67;;;10.43;;
76850;SDS011;65824;43.726;20.692;2023-04-24T05:04:37;20.42;;;10.65;;
76850;SDS011;65824;43.726;20.692;2023-04-24T05:07:03;16.20;;;8.40;;
76850;SDS011;65824;43.726;20.692;2023-04-24T05:09:28;11.93;;;7.13;;
76850;SDS011;65824;43.726;20.692;2023-04-24T05:11:55;13.43;;;7.05;;
76850;SDS011;65824;43.726;20.692;2023-04-24T05:14:21;11.25;;;7.07;;
76850;SDS011;65824;43.726;20.692;2023-04-24T05:16:47;10.45;;;6.38;;
76850;SDS011;65824;43.726;20.692;2023-04-24T05:19:14;10.38;;;7.03;;
76850;SDS011;65824;43.726;20.692;2023-04-24T05:21:40;13.32;;;7.15;;
76850;SDS011;65824;43.726;20.692;2023-04-24T05:24:06;10.80;;;6.40;;
76850;SDS011;65824;43.726;20.692;2023-04-24T05:26:32;11.77;;;6.65;;
76850;SDS011;65824;43.726;20.692;2023-04-24T05:28:58;12.85;;;6.45;;
76850;SDS011;65824;43.726;20.692;2023-04-24T05:31:23;11.43;;;6.45;;
76850;SDS011;65824;43.726;20.692;2023-04-24T05:33:50;10.85;;;6.60;;
76850;SDS011;65824;43.726;20.692;2023-04-24T05:36:16;14.30;;;6.30;;
76850;SDS011;65824;43.726;20.692;2023-04-24T05:38:42;11.88;;;6.60;;
76850;SDS011;65824;43.726;20.692;2023-04-24T05:41:08;11.07;;;7.53;;
76850;SDS011;65824;43.726;20.692;2023-04-24T05:43:34;14.43;;;7.28;;
76850;SDS011;65824;43.726;20.692;2023-04-24T05:45:59;11.75;;;6.60;;
76850;SDS011;65824;43.726;20.692;2023-04-24T05:48:25;11.98;;;6.70;;
76850;SDS011;65824;43.726;20.692;2023-04-24T05:50:51;12.00;;;7.18;;
76850;SDS011;65824;43.726;20.692;2023-04-24T05:53:17;13.52;;;7.70;;
76850;SDS011;65824;43.726;20.692;2023-04-24T05:55:43;12.75;;;7.65;;
76850;SDS011;65824;43.726;20.692;2023-04-24T05:58:09;12.77;;;7.00;;
76850;SDS011;65824;43.726;20.692;2023-04-24T06:00:35;13.77;;;7.13;;
76850;SDS011;65824;43.726;20.692;2023-04-24T06:03:01;12.25;;;7.07;;
76850;SDS011;65824;43.726;20.692;2023-04-24T06:05:28;13.25;;;7.25;;
76850;SDS011;65824;43.726;20.692;2023-04-24T06:07:55;11.05;;;6.50;;
76850;SDS011;65824;43.726;20.692;2023-04-24T06:10:20;13.77;;;6.68;;
76850;SDS011;65824;43.726;20.692;2023-04-24T06:12:46;13.82;;;7.10;;
76850;SDS011;65824;43.726;20.692;2023-04-24T06:15:11;12.77;;;7.00;;
76850;SDS011;65824;43.726;20.692;2023-04-24T06:17:37;12.48;;;7.10;;
76850;SDS011;65824;43.726;20.692;2023-04-24T06:20:03;16.42;;;6.75;;
76850;SDS011;65824;43.726;20.692;2023-04-24T06:22:31;13.93;;;7.38;;
76850;SDS011;65824;43.726;20.692;2023-04-24T06:24:57;14.10;;;7.10;;
76850;SDS011;65824;43.726;20.692;2023-04-24T06:27:22;13.30;;;8.02;;
76850;SDS011;65824;43.726;20.692;2023-04-24T06:29:48;13.07;;;6.97;;
76850;SDS011;65824;43.726;20.692;2023-04-24T06:32:19;15.13;;;7.00;;
76850;SDS011;65824;43.726;20.692;2023-04-24T06:34:45;13.30;;;6.93;;
76850;SDS011;65824;43.726;20.692;2023-04-24T06:37:11;12.25;;;6.35;;
76850;SDS011;65824;43.726;20.692;2023-04-24T06:39:38;14.55;;;6.25;;
76850;SDS011;65824;43.726;20.692;2023-04-24T06:42:03;14.88;;;7.75;;
76850;SDS011;65824;43.726;20.692;2023-04-24T06:44:28;15.23;;;7.60;;
76850;SDS011;65824;43.726;20.692;2023-04-24T06:46:54;14.10;;;7.43;;
76850;SDS011;65824;43.726;20.692;2023-04-24T06:49:20;18.55;;;8.85;;
76850;SDS011;65824;43.726;20.692;2023-04-24T06:51:45;12.55;;;7.28;;
76850;SDS011;65824;43.726;20.692;2023-04-24T06:54:11;11.75;;;6.80;;
76850;SDS011;65824;43.726;20.692;2023-04-24T06:56:37;13.27;;;6.40;;
76850;SDS011;65824;43.726;20.692;2023-04-24T06:59:04;17.02;;;6.68;;
76850;SDS011;65824;43.726;20.692;2023-04-24T07:01:30;14.18;;;5.95;;
76850;SDS011;65824;43.726;20.692;2023-04-24T07:03:55;13.35;;;5.97;;
76850;SDS011;65824;43.726;20.692;2023-04-24T07:06:21;11.82;;;6.60;;
76850;SDS011;65824;43.726;20.692;2023-04-24T07:08:47;11.57;;;6.22;;
76850;SDS011;65824;43.726;20.692;2023-04-24T07:11:15;13.73;;;6.25;;
76850;SDS011;65824;43.726;20.692;2023-04-24T07:13:40;10.02;;;5.88;;
76850;SDS011;65824;43.726;20.692;2023-04-24T07:16:09;13.10;;;6.13;;
76850;SDS011;65824;43.726;20.692;2023-04-24T07:18:35;8.23;;;5.35;;
76850;SDS011;65824;43.726;20.692;2023-04-24T07:21:01;10.75;;;6.25;;
76850;SDS011;65824;43.726;20.692;2023-04-24T07:23:28;10.88;;;5.90;;
76850;SDS011;65824;43.726;20.692;2023-04-24T07:25:54;12.35;;;6.18;;
76850;SDS011;65824;43.726;20.692;2023-04-24T07:28:19;11.40;;;5.82;;
76850;SDS011;65824;43.726;20.692;2023-04-24T07:30:48;14.30;;;5.57;;
76850;SDS011;65824;43.726;20.692;2023-04-24T07:33:13;16.65;;;5.63;;
76850;SDS011;65824;43.726;20.692;2023-04-24T07:35:39;14.10;;;6.28;;
76850;SDS011;65824;43.726;20.692;2023-04-24T07:38:04;12.55;;;5.90;;
76850;SDS011;65824;43.726;20.692;2023-04-24T07:40:34;12.27;;;6.43;;
76850;SDS011;65824;43.726;20.692;2023-04-24T07:42:59;12.93;;;6.75;;
76850;SDS011;65824;43.726;20.692;2023-04-24T07:45:25;10.73;;;5.60;;
76850;SDS011;65824;43.726;20.692;2023-04-24T07:47:52;10.55;;;5.68;;
76850;SDS011;65824;43.726;20.692;2023-04-24T07:50:18;11.45;;;6.05;;
76850;SDS011;65824;43.726;20.692;2023-04-24T07:52:43;20.00;;;10.43;;
76850;SDS011;65824;43.726;20.692;2023-04-24T07:55:09;21.77;;;11.50;;
76850;SDS011;65824;43.726;20.692;2023-04-24T07:57:35;11.23;;;6.60;;
76850;SDS011;65824;43.726;20.692;2023-04-24T08:00:03;17.40;;;10.23;;
76850;SDS011;65824;43.726;20.692;2023-04-24T08:02:30;12.52;;;8.02;;
76850;SDS011;65824;43.726;20.692;2023-04-24T08:04:56;11.32;;;7.25;;
76850;SDS011;65824;43.726;20.692;2023-04-24T08:07:22;10.35;;;6.55;;
76850;SDS011;65824;43.726;20.692;2023-04-24T08:09:48;10.45;;;5.68;;
76850;SDS011;65824;43.726;20.692;2023-04-24T08:12:14;11.82;;;7.18;;
76850;SDS011;65824;43.726;20.692;2023-04-24T08:14:40;10.95;;;5.85;;
76850;SDS011;65824;43.726;20.692;2023-04-24T08:17:10;11.52;;;7.03;;
76850;SDS011;65824;43.726;20.692;2023-04-24T08:19:36;13.18;;;6.78;;
76850;SDS011;65824;43.726;20.692;2023-04-24T08:22:01;11.23;;;6.20;;
76850;SDS011;65824;43.726;20.692;2023-04-24T08:24:29;10.35;;;6.68;;
76850;SDS011;65824;43.726;20.692;2023-04-24T08:26:55;11.50;;;7.35;;
76850;SDS011;65824;43.726;20.692;2023-04-24T08:29:22;10.82;;;6.63;;
76850;SDS011;65824;43.726;20.692;2023-04-24T08:31:48;13.80;;;6.75;;
76850;SDS011;65824;43.726;20.692;2023-04-24T08:34:16;8.27;;;5.88;;
76850;SDS011;65824;43.726;20.692;2023-04-24T08:36:41;8.40;;;5.40;;
76850;SDS011;65824;43.726;20.692;2023-04-24T08:39:08;11.30;;;6.00;;
76850;SDS011;65824;43.726;20.692;2023-04-24T08:41:34;9.90;;;5.53;;
76850;SDS011;65824;43.726;20.692;2023-04-24T08:44:01;10.43;;;5.13;;
76850;SDS011;65824;43.726;20.692;2023-04-24T08:46:27;10.77;;;5.90;;
76850;SDS011;65824;43.726;20.692;2023-04-24T08:48:56;9.88;;;5.72;;
76850;SDS011;65824;43.726;20.692;2023-04-24T08:51:22;9.82;;;4.90;;
76850;SDS011;65824;43.726;20.692;2023-04-24T08:53:47;15.00;;;5.85;;
76850;SDS011;65824;43.726;20.692;2023-04-24T08:56:13;9.38;;;5.53;;
76850;SDS011;65824;43.726;20.692;2023-04-24T08:58:39;16.27;;;5.57;;
76850;SDS011;65824;43.726;20.692;2023-04-24T09:01:06;8.30;;;5.30;;
76850;SDS011;65824;43.726;20.692;2023-04-24T09:03:32;8.95;;;4.93;;
76850;SDS011;65824;43.726;20.692;2023-04-24T09:05:58;9.30;;;4.47;;
76850;SDS011;65824;43.726;20.692;2023-04-24T09:08:24;9.88;;;4.88;;
76850;SDS011;65824;43.726;20.692;2023-04-24T09:10:51;13.38;;;5.00;;
76850;SDS011;65824;43.726;20.692;2023-04-24T09:13:17;9.13;;;4.80;;
76850;SDS011;65824;43.726;20.692;2023-04-24T09:15:46;8.75;;;4.30;;
76850;SDS011;65824;43.726;20.692;2023-04-24T09:18:11;11.75;;;5.07;;
76850;SDS011;65824;43.726;20.692;2023-04-24T09:23:27;9.20;;;5.72;;
76850;SDS011;65824;43.726;20.692;2023-04-24T09:25:54;10.00;;;4.85;;
76850;SDS011;65824;43.726;20.692;2023-04-24T09:28:25;13.50;;;5.70;;
76850;SDS011;65824;43.726;20.692;2023-04-24T09:36:26;8.85;;;4.55;;
76850;SDS011;65824;43.726;20.692;2023-04-24T09:38:53;10.55;;;4.30;;
76850;SDS011;65824;43.726;20.692;2023-04-24T09:41:20;10.73;;;4.43;;
76850;SDS011;65824;43.726;20.692;2023-04-24T09:43:46;17.17;;;5.65;;
76850;SDS011;65824;43.726;20.692;2023-04-24T09:46:14;8.07;;;4.38;;
76850;SDS011;65824;43.726;20.692;2023-04-24T09:48:43;8.10;;;3.97;;
76850;SDS011;65824;43.726;20.692;2023-04-24T09:51:08;6.47;;;4.40;;
76850;SDS011;65824;43.726;20.692;2023-04-24T09:53:36;8.65;;;3.72;;
76850;SDS011;65824;43.726;20.692;2023-04-24T09:56:02;7.15;;;4.55;;
76850;SDS011;65824;43.726;20.692;2023-04-24T09:58:34;6.57;;;4.13;;
76850;SDS011;65824;43.726;20.692;2023-04-24T10:01:01;7.38;;;4.18;;
76850;SDS011;65824;43.726;20.692;2023-04-24T10:03:27;8.50;;;5.35;;
76850;SDS011;65824;43.726;20.692;2023-04-24T10:06:03;8.00;;;4.72;;
76850;SDS011;65824;43.726;20.692;2023-04-24T10:11:00;9.48;;;5.25;;
76850;SDS011;65824;43.726;20.692;2023-04-24T10:13:26;8.73;;;5.03;;
76850;SDS011;65824;43.726;20.692;2023-04-24T10:15:51;10.70;;;5.78;;
76850;SDS011;65824;43.726;20.692;2023-04-24T10:18:17;9.20;;;4.40;;
76850;SDS011;65824;43.726;20.692;2023-04-24T10:20:43;6.82;;;4.05;;
76850;SDS011;65824;43.726;20.692;2023-04-24T10:23:09;8.93;;;5.30;;
76850;SDS011;65824;43.726;20.692;2023-04-24T10:25:36;7.57;;;4.78;;
76850;SDS011;65824;43.726;20.692;2023-04-24T10:28:02;7.53;;;4.47;;
76850;SDS011;65824;43.726;20.692;2023-04-24T10:30:29;9.55;;;5.15;;
76850;SDS011;65824;43.726;20.692;2023-04-24T10:32:55;11.90;;;4.47;;
76850;SDS011;65824;43.726;20.692;2023-04-24T10:35:21;7.55;;;4.07;;
76850;SDS011;65824;43.726;20.692;2023-04-24T10:37:58;8.15;;;4.68;;
76850;SDS011;65824;43.726;20.692;2023-04-24T10:43:04;9.27;;;4.90;;
76850;SDS011;65824;43.726;20.692;2023-04-24T10:45:35;9.27;;;5.43;;
76850;SDS011;65824;43.726;20.692;2023-04-24T10:48:01;8.80;;;5.05;;
76850;SDS011;65824;43.726;20.692;2023-04-24T10:51:04;11.50;;;4.50;;
76850;SDS011;65824;43.726;20.692;2023-04-24T10:53:27;11.43;;;5.20;;
76850;SDS011;65824;43.726;20.692;2023-04-24T10:55:57;10.70;;;5.10;;
76850;SDS011;65824;43.726;20.692;2023-04-24T10:58:44;7.25;;;4.30;;
76850;SDS011;65824;43.726;20.692;2023-04-24T11:01:30;9.15;;;4.50;;
76850;SDS011;65824;43.726;20.692;2023-04-24T11:04:01;9.18;;;5.10;;
76850;SDS011;65824;43.726;20.692;2023-04-24T11:11:30;11.40;;;6.18;;
76850;SDS011;65824;43.726;20.692;2023-04-24T11:21:44;7.30;;;4.30;;
76850;SDS011;65824;43.726;20.692;2023-04-24T11:27:17;7.93;;;4.65;;
76850;SDS011;65824;43.726;20.692;2023-04-24T11:34:59;7.00;;;4.82;;
76850;SDS011;65824;43.726;20.692;2023-04-24T11:37:33;8.98;;;5.32;;
76850;SDS011;65824;43.726;20.692;2023-04-24T11:40:03;9.32;;;5.38;;
76850;SDS011;65824;43.726;20.692;2023-04-24T11:42:34;10.50;;;5.85;;
76850;SDS011;65824;43.726;20.692;2023-04-24T11:45:01;11.70;;;5.00;;
76850;SDS011;65824;43.726;20.692;2023-04-24T11:47:30;8.98;;;5.53;;
76850;SDS011;65824;43.726;20.692;2023-04-24T11:49:59;10.32;;;7.15;;
76850;SDS011;65824;43.726;20.692;2023-04-24T11:52:30;11.07;;;6.50;;
76850;SDS011;65824;43.726;20.692;2023-04-24T11:54:58;10.90;;;5.65;;
76850;SDS011;65824;43.726;20.692;2023-04-24T11:57:25;12.25;;;6.00;;
76850;SDS011;65824;43.726;20.692;2023-04-24T11:59:58;10.05;;;5.80;;
76850;SDS011;65824;43.726;20.692;2023-04-24T12:02:24;10.20;;;6.53;;
76850;SDS011;65824;43.726;20.692;2023-04-24T12:04:51;8.43;;;5.47;;
76850;SDS011;65824;43.726;20.692;2023-04-24T12:07:21;9.40;;;5.47;;
76850;SDS011;65824;43.726;20.692;2023-04-24T12:09:49;9.30;;;5.18;;
76850;SDS011;65824;43.726;20.692;2023-04-24T12:12:24;9.60;;;5.10;;
76850;SDS011;65824;43.726;20.692;2023-04-24T12:14:56;9.13;;;5.50;;
76850;SDS011;65824;43.726;20.692;2023-04-24T12:17:30;11.80;;;5.97;;
76850;SDS011;65824;43.726;20.692;2023-04-24T12:20:00;8.60;;;5.22;;
76850;SDS011;65824;43.726;20.692;2023-04-24T12:22:36;9.10;;;5.13;;
76850;SDS011;65824;43.726;20.692;2023-04-24T12:25:29;10.27;;;6.70;;
76850;SDS011;65824;43.726;20.692;2023-04-24T12:30:31;10.77;;;5.85;;
76850;SDS011;65824;43.726;20.692;2023-04-24T12:32:59;10.15;;;6.43;;
76850;SDS011;65824;43.726;20.692;2023-04-24T12:35:29;10.10;;;5.60;;
76850;SDS011;65824;43.726;20.692;2023-04-24T12:38:04;8.75;;;5.65;;
76850;SDS011;65824;43.726;20.692;2023-04-24T12:40:39;9.15;;;5.30;;
76850;SDS011;65824;43.726;20.692;2023-04-24T12:43:16;9.15;;;5.00;;
76850;SDS011;65824;43.726;20.692;2023-04-24T12:45:49;8.20;;;5.88;;
76850;SDS011;65824;43.726;20.692;2023-04-24T12:48:14;9.40;;;5.70;;
76850;SDS011;65824;43.726;20.692;2023-04-24T12:50:40;11.95;;;6.65;;
76850;SDS011;65824;43.726;20.692;2023-04-24T12:53:06;9.73;;;5.60;;
76850;SDS011;65824;43.726;20.692;2023-04-24T12:55:33;9.35;;;5.15;;
76850;SDS011;65824;43.726;20.692;2023-04-24T12:58:00;13.07;;;5.68;;
76850;SDS011;65824;43.726;20.692;2023-04-24T13:00:28;10.77;;;6.22;;
76850;SDS011;65824;43.726;20.692;2023-04-24T13:02:56;10.55;;;6.72;;
76850;SDS011;65824;43.726;20.692;2023-04-24T13:05:21;15.35;;;8.75;;
76850;SDS011;65824;43.726;20.692;2023-04-24T13:07:47;10.82;;;7.47;;
76850;SDS011;65824;43.726;20.692;2023-04-24T13:10:13;12.82;;;7.95;;
76850;SDS011;65824;43.726;20.692;2023-04-24T13:12:38;13.40;;;7.22;;
76850;SDS011;65824;43.726;20.692;2023-04-24T13:15:06;12.10;;;7.03;;
76850;SDS011;65824;43.726;20.692;2023-04-24T13:17:32;9.80;;;6.85;;
76850;SDS011;65824;43.726;20.692;2023-04-24T13:19:58;11.18;;;7.00;;
76850;SDS011;65824;43.726;20.692;2023-04-24T13:22:24;11.73;;;6.90;;
76850;SDS011;65824;43.726;20.692;2023-04-24T13:24:50;11.27;;;6.93;;
76850;SDS011;65824;43.726;20.692;2023-04-24T13:27:17;14.43;;;9.40;;
76850;SDS011;65824;43.726;20.692;2023-04-24T13:29:42;15.40;;;8.85;;
76850;SDS011;65824;43.726;20.692;2023-04-24T13:32:08;12.15;;;7.30;;
76850;SDS011;65824;43.726;20.692;2023-04-24T13:34:34;11.45;;;7.00;;
76850;SDS011;65824;43.726;20.692;2023-04-24T13:37:03;11.02;;;7.22;;
76850;SDS011;65824;43.726;20.692;2023-04-24T13:39:29;11.13;;;6.75;;
76850;SDS011;65824;43.726;20.692;2023-04-24T13:41:55;11.88;;;7.18;;
76850;SDS011;65824;43.726;20.692;2023-04-24T13:44:20;11.50;;;7.70;;
76850;SDS011;65824;43.726;20.692;2023-04-24T13:46:48;13.77;;;8.05;;
76850;SDS011;65824;43.726;20.692;2023-04-24T13:49:17;12.45;;;7.80;;
76850;SDS011;65824;43.726;20.692;2023-04-24T13:51:43;12.57;;;7.13;;
76850;SDS011;65824;43.726;20.692;2023-04-24T13:54:10;9.25;;;6.15;;
76850;SDS011;65824;43.726;20.692;2023-04-24T13:56:36;11.02;;;6.85;;
76850;SDS011;65824;43.726;20.692;2023-04-24T13:59:02;8.52;;;6.00;;
76850;SDS011;65824;43.726;20.692;2023-04-24T14:01:28;11.15;;;6.93;;
76850;SDS011;65824;43.726;20.692;2023-04-24T14:03:56;11.30;;;6.82;;
76850;SDS011;65824;43.726;20.692;2023-04-24T14:06:23;12.05;;;6.78;;
76850;SDS011;65824;43.726;20.692;2023-04-24T14:08:52;11.73;;;6.75;;
76850;SDS011;65824;43.726;20.692;2023-04-24T14:11:18;11.32;;;6.45;;
76850;SDS011;65824;43.726;20.692;2023-04-24T14:13:44;10.77;;;6.80;;
76850;SDS011;65824;43.726;20.692;2023-04-24T14:16:10;16.85;;;10.13;;
76850;SDS011;65824;43.726;20.692;2023-04-24T14:18:37;12.38;;;7.60;;
76850;SDS011;65824;43.726;20.692;2023-04-24T14:21:08;13.15;;;7.30;;
76850;SDS011;65824;43.726;20.692;2023-04-24T14:23:36;12.60;;;8.18;;
76850;SDS011;65824;43.726;20.692;2023-04-24T14:26:01;12.85;;;7.50;;
76850;SDS011;65824;43.726;20.692;2023-04-24T14:28:29;11.23;;;7.20;;
76850;SDS011;65824;43.726;20.692;2023-04-24T14:30:56;12.57;;;7.78;;
76850;SDS011;65824;43.726;20.692;2023-04-24T14:33:22;14.52;;;7.80;;
76850;SDS011;65824;43.726;20.692;2023-04-24T14:35:48;11.63;;;7.00;;
76850;SDS011;65824;43.726;20.692;2023-04-24T14:38:16;11.43;;;6.32;;
76850;SDS011;65824;43.726;20.692;2023-04-24T14:40:43;8.98;;;6.68;;
76850;SDS011;65824;43.726;20.692;2023-04-24T14:43:08;10.88;;;6.40;;
76850;SDS011;65824;43.726;20.692;2023-04-24T14:45:37;12.57;;;7.25;;
76850;SDS011;65824;43.726;20.692;2023-04-24T14:48:03;10.85;;;6.82;;
76850;SDS011;65824;43.726;20.692;2023-04-24T14:50:29;13.43;;;7.45;;
76850;SDS011;65824;43.726;20.692;2023-04-24T14:52:55;13.57;;;6.85;;
76850;SDS011;65824;43.726;20.692;2023-04-24T14:55:22;11.20;;;6.75;;
76850;SDS011;65824;43.726;20.692;2023-04-24T14:57:48;11.38;;;6.30;;